Time;durP1;ratioP1;P1;durP2;ratioP2;P2;SDS_P1;SDS_P2;PMS_P1;PMS_P2;Temp;Humidity;BMP_temperature;BMP_pressure;BME280_temperature;BME280_humidity;BME280_pressure;Samples;Min_cycle;Max_cycle;Signal;HPM_P1;HPM_P2
2021/03/22 00:00:07;;;;;;;0.70;0.60;;;4.60;99.90;;;5.41;100.00;-20829.31;5032376;28;20218;-68
2021/03/22 00:02:35;;;;;;;0.70;0.60;;;4.60;99.90;;;5.21;100.00;-20823.91;5032974;28;20183;-68
2021/03/22 00:05:03;;;;;;;0.70;0.60;;;4.50;99.90;;;5.35;100.00;-20827.66;5030915;28;20222;-68
2021/03/22 00:07:30;;;;;;;0.70;0.60;;;4.60;99.90;;;5.18;100.00;-20791.56;5038596;28;20212;-68
2021/03/22 00:09:58;;;;;;;0.70;0.65;;;4.50;99.90;;;5.14;100.00;-20015.75;5039259;28;20194;-68
2021/03/22 00:12:26;;;;;;;0.70;0.60;;;4.40;99.90;;;5.28;100.00;-19619.56;5027276;28;20214;-69
2021/03/22 00:14:53;;;;;;;0.77;0.70;;;4.50;99.90;;;5.40;100.00;-19783.91;5065294;28;20296;-68
2021/03/22 00:17:20;;;;;;;0.70;0.60;;;4.60;99.90;;;5.35;100.00;-20351.44;5065585;28;20200;-69
2021/03/22 00:19:47;;;;;;;0.70;0.60;;;4.60;99.90;;;5.18;100.00;-20389.31;5033229;28;20218;-68
2021/03/22 00:22:14;;;;;;;0.70;0.60;;;4.50;99.90;;;5.18;100.00;-19857.88;5032179;28;20179;-68
2021/03/22 00:24:41;;;;;;;0.70;0.60;;;4.40;99.90;;;5.12;100.00;-19565.75;5032832;28;20182;-68
2021/03/22 00:27:09;;;;;;;0.70;0.60;;;4.40;99.90;;;5.32;100.00;-19620.59;5032263;28;20678;-68
2021/03/22 00:29:37;;;;;;;0.73;0.70;;;4.50;99.90;;;5.36;100.00;-20098.34;5030789;28;20201;-68
2021/03/22 00:32:06;;;;;;;0.70;0.60;;;4.60;99.90;;;5.30;100.00;-20213.75;5032482;28;20187;-68
2021/03/22 00:34:33;;;;;;;0.70;0.60;;;4.50;99.90;;;5.27;100.00;-20535.78;5065167;28;20218;-67
2021/03/22 00:37:01;;;;;;;0.70;0.60;;;4.60;99.90;;;5.37;100.00;-20746.88;5033146;28;20190;-69
2021/03/22 00:39:28;;;;;;;0.70;0.60;;;4.60;99.90;;;5.26;100.00;-20793.63;5031370;28;20174;-69
2021/03/22 00:41:54;;;;;;;0.70;0.60;;;4.50;99.90;;;5.23;100.00;-20824.59;5032477;28;20655;-68
2021/03/22 00:44:22;;;;;;;0.70;0.60;;;4.50;99.90;;;5.12;100.00;-20821.53;5031792;28;20717;-68
2021/03/22 00:46:51;;;;;;;0.70;0.60;;;4.40;99.90;;;5.10;100.00;-20820.97;5033338;28;20535;-69
2021/03/22 00:49:18;;;;;;;0.70;0.60;;;4.40;99.90;;;4.93;100.00;-20816.38;5031825;28;20618;-68
2021/03/22 00:51:44;;;;;;;0.70;0.60;;;4.30;99.90;;;4.99;100.00;-20530.63;5033303;28;20719;-68
2021/03/22 00:54:12;;;;;;;0.70;0.60;;;4.20;99.90;;;5.07;100.00;-20654.59;5031535;28;20190;-67
2021/03/22 00:56:39;;;;;;;0.70;0.60;;;4.30;99.90;;;4.97;100.00;-20817.34;5041759;28;20309;-68
2021/03/22 00:59:06;;;;;;;0.70;0.60;;;4.20;99.90;;;4.96;100.00;-20750.81;5032154;28;20666;-68
2021/03/22 01:01:34;;;;;;;0.70;0.60;;;4.20;99.90;;;4.93;100.00;-20556.28;5032780;28;20566;-68
2021/03/22 01:04:02;;;;;;;0.70;0.65;;;4.20;99.90;;;4.97;100.00;-20706.28;5031980;28;20208;-68
2021/03/22 01:06:30;;;;;;;0.70;0.60;;;4.20;99.90;;;5.07;100.00;-20820.13;5031434;28;20190;-71
2021/03/22 01:08:57;;;;;;;0.70;0.60;;;4.30;99.90;;;5.08;100.00;-20820.41;5031973;28;20190;-68
2021/03/22 01:11:24;;;;;;;0.70;0.68;;;4.30;99.90;;;5.06;100.00;-20819.88;5030738;28;20202;-68
2021/03/22 01:13:54;;;;;;;0.70;0.60;;;4.30;99.90;;;5.21;100.00;-20824.03;5031788;28;20304;-68
2021/03/22 01:16:23;;;;;;;0.70;0.60;;;4.40;99.90;;;5.14;100.00;-20822.09;5032957;28;20266;-67
2021/03/22 01:18:55;;;;;;;0.70;0.60;;;4.40;99.90;;;5.24;100.00;-20824.75;5033000;28;20209;-68
2021/03/22 01:21:29;;;;;;;0.70;0.70;;;4.40;99.90;;;5.38;100.00;-20828.50;5032612;28;20657;-68
2021/03/22 01:23:56;;;;;;;0.70;0.60;;;4.50;99.90;;;5.50;100.00;-20831.84;5032476;28;20190;-68
2021/03/22 01:26:26;;;;;;;0.70;0.60;;;4.60;99.90;;;5.54;100.00;-20833.09;5030819;28;20654;-68
2021/03/22 01:28:54;;;;;;;0.70;0.65;;;4.70;99.90;;;5.52;100.00;-20832.53;5030566;28;20608;-70
2021/03/22 01:31:22;;;;;;;0.70;0.60;;;4.60;99.90;;;5.25;100.00;-20825.16;5014707;28;20187;-68
2021/03/22 01:33:52;;;;;;;0.70;0.60;;;4.50;99.90;;;5.15;100.00;-20822.38;5015566;28;20710;-68
2021/03/22 01:36:25;;;;;;;0.70;0.60;;;4.40;99.90;;;4.90;100.00;-20815.41;5032726;28;20535;-68
2021/03/22 01:38:56;;;;;;;0.70;0.60;;;4.20;99.90;;;4.76;100.00;-20811.78;5032452;28;20527;-68
2021/03/22 01:42:02;;;;;;;0.70;0.60;;;4.10;99.90;;;4.77;100.00;-20812.06;5033693;28;20295;-68
2021/03/22 01:44:32;;;;;;;0.70;0.60;;;4.10;99.90;;;5.10;100.00;-20820.97;5008418;28;20207;-68
2021/03/22 01:47:04;;;;;;;0.70;0.60;;;4.30;99.90;;;5.13;100.00;-20821.69;5015996;28;20243;-68
2021/03/22 01:49:50;;;;;;;0.70;0.60;;;4.30;99.90;;;5.36;100.00;-20827.94;5036150;28;20264;-68
2021/03/22 01:52:18;;;;;;;0.70;0.60;;;4.40;99.90;;;5.32;100.00;-20827.09;5035100;28;20659;-68
2021/03/22 01:54:47;;;;;;;0.70;0.70;;;4.40;99.90;;;5.46;100.00;-20830.88;5034947;28;20209;-68
2021/03/22 01:57:32;;;;;;;0.70;0.60;;;4.50;99.90;;;5.42;100.00;-20829.59;5042896;28;20229;-68
2021/03/22 02:00:27;;;;;;;0.70;0.63;;;4.50;99.90;;;5.66;100.00;-20836.16;5034406;28;20658;-68
2021/03/22 02:02:59;;;;;;;0.70;0.60;;;4.60;99.90;;;5.56;100.00;-20833.50;5033933;28;20212;-70
2021/03/22 02:05:30;;;;;;;0.70;0.60;;;4.60;99.90;;;5.47;100.00;-20831.13;5034724;28;20217;-69
2021/03/22 02:08:04;;;;;;;0.70;0.70;;;4.50;99.90;;;5.43;100.00;-20829.88;5035519;28;20547;-68
2021/03/22 02:10:32;;;;;;;0.70;0.60;;;4.50;99.90;;;5.42;100.00;-20829.59;5065495;28;20190;-68
2021/03/22 02:13:00;;;;;;;0.80;0.70;;;4.50;99.90;;;5.36;100.00;-20827.94;5036970;28;20190;-68
2021/03/22 02:15:28;;;;;;;0.70;0.60;;;4.40;99.90;;;5.58;100.00;-20834.06;5025467;28;20249;-68
2021/03/22 02:18:07;;;;;;;0.70;0.60;;;4.50;99.90;;;5.43;100.00;-20830.03;5035971;28;20190;-68
2021/03/22 02:22:07;;;;;;;0.70;0.60;;;4.40;99.90;;;5.29;100.00;-20826.13;5036700;28;20209;-68
2021/03/22 02:24:51;;;;;;;0.70;0.60;;;4.40;99.90;;;5.43;100.00;-20830.03;5034366;28;20189;-70
2021/03/22 02:28:11;;;;;;;0.70;0.60;;;4.40;99.90;;;5.38;100.00;-20828.63;5034483;28;20632;-68
2021/03/22 02:31:31;;;;;;;0.70;0.60;;;4.40;99.90;;;5.47;100.00;-20831.13;5021783;28;20203;-69
2021/03/22 02:34:24;;;;;;;0.70;0.60;;;4.60;99.90;;;5.63;100.00;-20835.44;5028798;28;20300;-69
2021/03/22 02:37:10;;;;;;;0.70;0.60;;;4.60;99.90;;;5.66;100.00;-20836.16;5073191;28;20201;-68
2021/03/22 02:39:45;;;;;;;0.70;0.60;;;4.60;99.90;;;5.59;100.00;-20834.34;5015374;28;20517;-68
2021/03/22 02:42:15;;;;;;;0.70;0.60;;;4.60;99.90;;;5.79;100.00;-20839.91;5031022;28;20678;-69
2021/03/22 02:44:41;;;;;;;0.70;0.60;;;4.60;99.90;;;5.78;100.00;-20839.63;5065650;28;20202;-69
2021/03/22 02:47:29;;;;;;;0.70;0.60;;;4.70;99.90;;;5.63;100.00;-20835.44;5033425;28;20206;-68
2021/03/22 02:50:05;;;;;;;0.70;0.60;;;4.60;99.90;;;5.72;100.00;-20837.97;5033770;28;20302;-68
2021/03/22 02:53:18;;;;;;;0.70;0.60;;;4.60;99.90;;;5.72;100.00;-20837.97;5034034;28;20692;-68
2021/03/22 02:56:00;;;;;;;0.70;0.60;;;4.60;99.90;;;5.55;100.00;-20833.38;5034178;28;20194;-70
2021/03/22 02:58:31;;;;;;;0.70;0.60;;;4.60;99.90;;;5.70;100.00;-20837.41;5034349;28;20190;-68
2021/03/22 03:01:06;;;;;;;0.70;0.60;;;4.60;99.90;;;5.79;100.00;-20839.91;5033273;28;20191;-68
2021/03/22 03:03:36;;;;;;;0.70;0.60;;;4.70;99.90;;;5.72;100.00;-20837.97;5027304;28;20234;-68
2021/03/22 03:06:05;;;;;;;0.70;0.60;;;4.70;99.90;;;5.68;100.00;-20836.72;5033935;28;20186;-67
2021/03/22 03:08:36;;;;;;;0.70;0.50;;;4.60;99.90;;;5.70;100.00;-20837.41;5034470;28;20233;-69
2021/03/22 03:11:05;;;;;;;0.70;0.60;;;4.60;99.90;;;5.72;100.00;-20837.97;5033401;28;20194;-68
2021/03/22 03:13:32;;;;;;;0.70;0.60;;;4.60;99.90;;;5.75;100.00;-20838.66;5034267;28;20205;-68
2021/03/22 03:16:01;;;;;;;0.70;0.50;;;4.60;99.90;;;5.65;100.00;-20835.88;5033825;28;20258;-70
2021/03/22 03:18:28;;;;;;;0.70;0.60;;;4.60;99.90;;;5.67;100.00;-20836.56;5032892;28;20256;-68
2021/03/22 03:20:58;;;;;;;0.70;0.60;;;4.60;99.90;;;5.68;100.00;-20836.84;5034182;28;20190;-68
2021/03/22 03:23:27;;;;;;;0.70;0.60;;;4.50;99.90;;;5.73;100.00;-20838.22;5034784;28;20658;-68
2021/03/22 03:25:55;;;;;;;0.70;0.60;;;4.50;99.90;;;5.76;100.00;-20838.94;5031997;28;20198;-68
2021/03/22 03:28:22;;;;;;;0.70;0.60;;;4.50;99.90;;;5.66;100.00;-20836.16;5034335;28;20216;-68
2021/03/22 03:30:49;;;;;;;0.70;0.60;;;4.50;99.90;;;5.64;100.00;-20835.72;5047263;28;20269;-68
2021/03/22 03:33:16;;;;;;;0.70;0.60;;;4.50;99.90;;;5.63;100.00;-20835.44;5049750;28;20297;-68
2021/03/22 03:35:45;;;;;;;0.70;0.60;;;4.50;99.90;;;5.69;100.00;-20836.97;5066106;28;20666;-71
2021/03/22 03:38:13;;;;;;;0.70;0.60;;;4.50;99.90;;;5.63;100.00;-20835.44;5033244;28;20213;-68
2021/03/22 03:40:44;;;;;;;0.70;0.60;;;4.50;99.90;;;5.67;100.00;-20836.56;5033393;28;20241;-68
2021/03/22 03:43:13;;;;;;;0.70;0.60;;;4.50;99.90;;;5.62;100.00;-20835.16;5033997;28;20198;-68
2021/03/22 03:45:42;;;;;;;0.70;0.60;;;4.50;99.90;;;5.53;100.00;-20832.66;5031781;28;20224;-68
2021/03/22 03:48:13;;;;;;;0.70;0.60;;;4.50;99.90;;;5.68;100.00;-20836.84;5033353;28;20312;-68
2021/03/22 03:50:42;;;;;;;0.70;0.60;;;4.50;99.90;;;5.62;100.00;-20835.03;5032738;28;20178;-68
2021/03/22 03:53:09;;;;;;;0.70;0.63;;;4.50;99.90;;;5.72;100.00;-20837.97;5032967;28;20229;-68
2021/03/22 03:55:36;;;;;;;0.70;0.50;;;4.50;99.90;;;5.67;100.00;-20836.56;5033173;28;20190;-68
2021/03/22 03:58:05;;;;;;;0.70;0.60;;;4.50;99.90;;;5.53;100.00;-20832.66;5032407;28;20198;-68
2021/03/22 04:00:36;;;;;;;0.70;0.60;;;4.50;99.90;;;5.45;100.00;-20830.59;5032849;28;20186;-69
2021/03/22 04:03:32;;;;;;;0.70;0.60;;;4.40;99.90;;;5.56;100.00;-20833.50;5013947;28;20273;-68
2021/03/22 04:06:03;;;;;;;0.70;0.60;;;4.40;99.90;;;5.54;100.00;-20832.94;5027457;28;20206;-68
2021/03/22 04:08:32;;;;;;;0.70;0.60;;;4.40;99.90;;;5.48;100.00;-20831.41;5033520;28;20256;-68
2021/03/22 04:11:03;;;;;;;0.70;0.60;;;4.30;99.90;;;5.44;100.00;-20830.16;5031593;28;20190;-68
2021/03/22 04:13:32;;;;;;;0.70;0.60;;;4.30;99.90;;;5.35;100.00;-20827.66;5033658;28;20284;-68
2021/03/22 04:16:00;;;;;;;0.70;0.60;;;4.30;99.90;;;5.21;100.00;-20824.03;5032217;28;20186;-68
2021/03/22 04:18:35;;;;;;;0.70;0.60;;;4.20;99.90;;;5.28;100.00;-20826.00;5038203;28;20613;-70
2021/03/22 04:21:05;;;;;;;0.70;0.60;;;4.20;99.90;;;5.31;100.00;-20826.69;5053663;28;20178;-70
2021/03/22 04:23:32;;;;;;;0.70;0.50;;;4.20;99.90;;;5.22;100.00;-20824.31;5053457;28;20260;-70
2021/03/22 04:26:00;;;;;;;0.70;0.57;;;4.20;99.90;;;5.07;100.00;-20820.13;5040000;28;20202;-67
2021/03/22 04:28:27;;;;;;;0.93;0.88;;;4.20;99.90;;;5.11;100.00;-20821.25;5030356;28;20206;-69
2021/03/22 04:30:56;;;;;;;0.70;0.60;;;4.10;99.90;;;5.11;100.00;-20821.25;5013466;28;20186;-68
2021/03/22 04:33:24;;;;;;;0.70;0.60;;;4.10;99.90;;;5.04;100.00;-20819.31;5031298;28;20229;-68
2021/03/22 04:35:52;;;;;;;0.70;0.60;;;4.10;99.90;;;5.19;100.00;-20823.50;5033243;28;20197;-67
2021/03/22 04:38:20;;;;;;;0.70;0.60;;;4.10;99.90;;;5.19;100.00;-20823.50;5033051;28;20274;-68
2021/03/22 04:40:48;;;;;;;0.70;0.50;;;4.10;99.90;;;5.11;100.00;-20821.13;5035215;28;20668;-68
2021/03/22 04:43:16;;;;;;;0.70;0.55;;;4.00;99.90;;;5.19;100.00;-20823.34;5034186;28;20623;-69
2021/03/22 04:45:46;;;;;;;0.70;0.60;;;4.00;99.90;;;5.11;100.00;-20821.25;5042978;28;20200;-68
2021/03/22 04:48:15;;;;;;;0.70;0.60;;;4.00;99.90;;;5.13;100.00;-20821.81;5031794;28;20225;-68
2021/03/22 04:50:44;;;;;;;0.70;0.60;;;4.00;99.90;;;5.05;100.00;-20819.59;5037486;28;20194;-68
2021/03/22 04:53:11;;;;;;;0.70;0.60;;;3.90;99.90;;;5.12;100.00;-20821.41;5039278;28;20189;-68
2021/03/22 04:55:39;;;;;;;0.70;0.60;;;4.00;99.90;;;5.12;100.00;-20821.53;5041467;28;20646;-68
2021/03/22 04:58:06;;;;;;;0.70;0.60;;;3.90;99.90;;;5.18;100.00;-20823.19;5045720;28;20662;-68
2021/03/22 05:00:39;;;;;;;0.70;0.60;;;4.00;99.90;;;5.23;100.00;-20824.47;5015657;28;20193;-69
2021/03/22 05:03:09;;;;;;;0.70;0.60;;;3.90;99.90;;;5.14;100.00;-20821.94;5028146;28;20221;-70
2021/03/22 05:05:38;;;;;;;0.70;0.55;;;3.90;99.90;;;5.07;100.00;-20820.13;5041389;28;20221;-69
2021/03/22 05:08:08;;;;;;;0.70;0.60;;;3.90;99.90;;;5.09;100.00;-20820.84;5030071;28;20198;-69
2021/03/22 05:10:37;;;;;;;0.68;0.60;;;3.90;99.90;;;5.13;100.00;-20821.81;5016050;28;20553;-69
2021/03/22 05:13:08;;;;;;;0.70;0.60;;;3.90;99.90;;;5.15;100.00;-20822.22;5039876;28;20186;-69
2021/03/22 05:15:35;;;;;;;0.70;0.60;;;3.90;99.90;;;5.02;100.00;-20818.75;5036698;28;20174;-69
2021/03/22 05:18:04;;;;;;;0.70;0.60;;;3.80;99.90;;;5.14;100.00;-20822.09;5057142;28;20738;-70
2021/03/22 05:20:38;;;;;;;0.70;0.60;;;3.90;99.90;;;5.11;100.00;-20821.13;5044807;28;20248;-69
2021/03/22 05:23:11;;;;;;;0.70;0.60;;;3.90;99.90;;;4.90;100.00;-20815.56;5021120;28;20182;-69
2021/03/22 05:25:39;;;;;;;0.70;0.60;;;3.80;99.90;;;5.09;100.00;-20820.69;5049594;28;20205;-69
2021/03/22 05:28:08;;;;;;;1.45;1.35;;;3.80;99.90;;;5.16;100.00;-20822.66;5039053;28;20209;-69
2021/03/22 05:30:36;;;;;;;0.70;0.60;;;3.80;99.90;;;5.04;100.00;-20819.44;5041049;28;20269;-69
2021/03/22 05:33:06;;;;;;;0.70;0.60;;;3.90;99.90;;;5.04;100.00;-20819.31;5032322;28;20679;-69
2021/03/22 05:35:35;;;;;;;0.70;0.60;;;3.80;99.90;;;5.16;100.00;-20822.50;5031764;28;20754;-70
2021/03/22 05:38:04;;;;;;;0.70;0.70;;;3.90;99.90;;;5.13;100.00;-20821.69;5039354;28;20194;-70
2021/03/22 05:40:37;;;;;;;0.70;0.60;;;3.90;99.90;;;5.17;100.00;-20822.94;5035842;28;20202;-70
2021/03/22 05:43:42;;;;;;;0.70;0.60;;;3.90;99.90;;;5.17;100.00;-20822.78;5034141;28;20550;-70
2021/03/22 05:46:17;;;;;;;0.70;0.60;;;3.90;99.90;;;5.11;100.00;-20821.25;5033681;28;20177;-69
2021/03/22 05:49:46;;;;;;;0.70;0.60;;;3.90;99.90;;;5.15;100.00;-20822.38;5034407;28;20317;-70
2021/03/22 05:52:29;;;;;;;0.70;0.60;;;3.90;99.90;;;5.25;100.00;-20825.16;5028381;28;20693;-70
2021/03/22 05:55:43;;;;;;;0.70;0.60;;;3.90;99.90;;;5.23;100.00;-20824.47;5033901;28;20252;-69
2021/03/22 05:58:53;;;;;;;0.70;0.60;;;3.90;99.90;;;5.24;100.00;-20824.88;5035544;28;20718;-70
2021/03/22 06:01:33;;;;;;;0.70;0.60;;;3.90;99.90;;;5.43;100.00;-20829.88;5014725;28;20198;-69
2021/03/22 06:04:09;;;;;;;0.70;0.60;;;4.00;99.90;;;5.51;100.00;-20832.13;5015959;28;20273;-70
2021/03/22 06:06:42;;;;;;;0.70;0.60;;;4.00;99.90;;;5.33;100.00;-20827.38;5048064;28;20702;-69
2021/03/22 06:09:28;;;;;;;0.70;0.60;;;4.00;99.90;;;5.40;100.00;-20829.06;5014689;28;20671;-70
2021/03/22 06:12:02;;;;;;;0.70;0.60;;;4.00;99.90;;;5.29;100.00;-20826.25;5019858;28;20273;-70
2021/03/22 06:14:46;;;;;;;0.70;0.60;;;4.00;99.90;;;5.27;100.00;-20825.72;5034367;28;20552;-69
2021/03/22 06:17:24;;;;;;;0.70;0.50;;;4.00;99.90;;;5.35;100.00;-20827.66;5035779;28;20175;-70
2021/03/22 06:20:17;;;;;;;0.70;0.60;;;4.10;99.90;;;5.37;100.00;-20828.22;5035610;28;20202;-69
2021/03/22 06:22:45;;;;;;;0.70;0.60;;;4.00;99.90;;;5.41;100.00;-20829.31;5018005;28;20248;-69
2021/03/22 06:25:19;;;;;;;0.70;0.60;;;4.10;99.90;;;5.46;100.00;-20830.88;5035067;28;20285;-70
2021/03/22 06:27:52;;;;;;;0.70;0.60;;;4.10;99.90;;;5.56;100.00;-20833.50;5034671;28;20198;-69
2021/03/22 06:30:23;;;;;;;0.70;0.60;;;4.10;99.90;;;5.41;100.00;-20829.31;5021015;28;20186;-69
2021/03/22 06:32:55;;;;;;;0.70;0.60;;;4.10;99.90;;;5.47;100.00;-20831.13;5015552;28;20179;-70
2021/03/22 06:35:30;;;;;;;0.70;0.60;;;4.10;99.90;;;5.50;100.00;-20831.97;5015671;28;20179;-70
2021/03/22 06:37:57;;;;;;;0.70;0.57;;;4.20;99.90;;;5.43;100.00;-20830.03;5016868;28;20667;-70
2021/03/22 06:40:34;;;;;;;0.70;0.60;;;4.20;99.90;;;5.61;100.00;-20834.91;5016032;28;20228;-70
2021/03/22 06:43:10;;;;;;;0.70;0.60;;;4.20;99.90;;;5.62;100.00;-20835.16;5035621;28;20186;-70
2021/03/22 06:45:43;;;;;;;0.70;0.60;;;4.20;99.90;;;5.71;100.00;-20837.53;5017981;28;20194;-70
2021/03/22 06:48:27;;;;;;;0.70;0.60;;;4.20;99.90;;;5.87;100.00;-20841.84;5035254;28;20701;-70
2021/03/22 06:51:17;;;;;;;0.70;0.60;;;4.30;99.90;;;5.72;100.00;-20837.97;5035508;28;20182;-70
2021/03/22 06:53:46;;;;;;;0.70;0.60;;;4.30;99.90;;;5.66;100.00;-20836.28;5035564;28;20229;-70
2021/03/22 06:56:20;;;;;;;0.70;0.60;;;4.30;99.90;;;5.63;100.00;-20835.44;5034874;28;20170;-70
2021/03/22 06:58:51;;;;;;;0.70;0.60;;;4.30;99.90;;;5.75;100.00;-20838.78;5035234;28;20170;-70
2021/03/22 07:01:36;;;;;;;1.35;1.25;;;4.30;99.90;;;5.58;100.00;-20834.06;5014760;28;20186;-70
2021/03/22 07:04:27;;;;;;;0.70;0.60;;;4.40;99.90;;;5.63;100.00;-20835.44;5015048;28;20206;-70
2021/03/22 07:07:13;;;;;;;0.70;0.60;;;4.40;99.90;;;5.83;100.00;-20840.88;5015126;28;20185;-70
2021/03/22 07:09:45;;;;;;;0.70;0.60;;;4.40;99.90;;;5.86;100.00;-20841.72;5065612;28;20202;-70
2021/03/22 07:12:36;;;;;;;0.70;0.65;;;4.40;99.90;;;5.97;100.00;-20844.63;5028297;28;20214;-70
2021/03/22 07:15:33;;;;;;;0.70;0.60;;;4.50;99.90;;;6.09;100.00;-20847.97;5033932;28;20210;-70
2021/03/22 07:18:20;;;;;;;0.70;0.60;;;4.60;99.90;;;6.21;100.00;-20851.31;4981468;28;20268;-71
2021/03/22 07:21:12;;;;;;;0.70;0.60;;;4.60;99.90;;;6.25;100.00;-20852.41;5014692;28;20285;-70
2021/03/22 07:24:08;;;;;;;3.72;1.23;;;4.70;99.90;;;6.37;100.00;-20855.47;5014665;28;20172;-70
2021/03/22 07:27:05;;;;;;;0.70;0.60;;;4.70;99.90;;;6.46;100.00;-20858.00;5014405;28;20596;-70
2021/03/22 07:29:58;;;;;;;0.70;0.60;;;4.80;99.90;;;6.69;100.00;-20864.38;5015067;28;20211;-70
2021/03/22 07:33:00;;;;;;;1.53;1.07;;;4.80;99.90;;;6.99;100.00;-20872.56;5033988;28;20638;-69
2021/03/22 07:36:17;;;;;;;0.70;0.60;;;5.00;99.90;;;7.09;100.00;-20875.22;5034417;28;20433;-69
2021/03/22 07:39:14;;;;;;;0.70;0.50;;;5.10;99.90;;;6.91;100.00;-20870.34;5030301;28;20425;-70
2021/03/22 07:42:18;;;;;;;0.70;0.50;;;5.20;99.90;;;7.17;100.00;-20877.28;5034207;28;20511;-70
2021/03/22 07:45:05;;;;;;;0.70;0.50;;;5.20;99.90;;;7.06;100.00;-20874.25;5014280;28;20468;-70
2021/03/22 07:47:50;;;;;;;0.70;0.50;;;5.30;99.90;;;7.28;100.00;-20880.22;5028196;28;20421;-70
2021/03/22 07:50:25;;;;;;;0.70;0.60;;;5.40;99.90;;;7.34;100.00;-20881.88;5033759;28;20812;-70
2021/03/22 07:52:58;;;;;;;1.23;1.13;;;5.50;99.90;;;7.25;100.00;-20879.53;5032982;28;20421;-70
2021/03/22 07:55:49;;;;;;;0.70;0.70;;;5.60;99.90;;;7.44;100.00;-20884.81;5032711;28;20424;-70
2021/03/22 07:58:46;;;;;;;0.70;0.60;;;5.60;99.90;;;7.35;100.00;-20882.28;5033068;28;20433;-70
2021/03/22 08:01:22;;;;;;;0.70;0.60;;;5.70;99.90;;;7.49;100.00;-20886.19;5032145;28;20943;-70
2021/03/22 08:04:25;;;;;;;0.70;0.60;;;5.60;99.90;;;7.50;100.00;-20886.31;5033942;28;20530;-70
2021/03/22 08:07:15;;;;;;;0.70;0.60;;;5.60;99.90;;;7.57;100.00;-20888.28;5033793;28;20451;-70
2021/03/22 08:10:27;;;;;;;1.60;1.50;;;5.70;99.90;;;7.60;100.00;-20889.09;5033608;28;20971;-70
2021/03/22 08:13:06;;;;;;;0.70;0.60;;;5.80;99.90;;;7.42;100.00;-20884.09;5033694;28;20433;-70
2021/03/22 08:15:48;;;;;;;0.70;0.60;;;5.80;99.90;;;7.47;100.00;-20885.63;5033456;28;20481;-70
2021/03/22 08:18:30;;;;;;;0.70;0.60;;;6.00;99.90;;;7.72;100.00;-20892.44;5033756;28;20452;-70
2021/03/22 08:21:09;;;;;;;0.60;0.50;;;6.30;99.90;;;8.23;100.00;-20906.31;5032367;28;20751;-70
2021/03/22 08:23:49;;;;;;;0.70;0.60;;;6.40;99.90;;;8.03;100.00;-20900.75;5033622;28;20437;-70
2021/03/22 08:26:25;;;;;;;0.70;0.70;;;6.40;99.90;;;7.90;100.00;-20897.16;5033061;28;20437;-70
2021/03/22 08:29:09;;;;;;;1.07;0.97;;;6.30;99.90;;;7.83;100.00;-20895.22;5026294;28;20461;-70
2021/03/22 08:31:45;;;;;;;0.70;0.60;;;6.30;99.90;;;7.81;100.00;-20894.78;5028193;28;20445;-70
2021/03/22 08:34:19;;;;;;;0.70;0.63;;;6.20;99.90;;;8.05;100.00;-20901.31;5033581;28;20455;-71
2021/03/22 08:37:02;;;;;;;0.70;0.50;;;6.30;99.90;;;8.09;100.00;-20902.28;5032971;28;20432;-70
2021/03/22 08:39:36;;;;;;;0.70;0.60;;;6.30;99.90;;;8.35;100.00;-20909.50;5033834;28;20424;-69
2021/03/22 08:42:13;;;;;;;0.70;0.50;;;6.40;99.90;;;8.49;100.00;-20913.25;5033353;28;20505;-69
2021/03/22 08:44:47;;;;;;;0.70;0.60;;;6.50;99.90;;;8.18;100.00;-20904.91;5033466;28;20427;-69
2021/03/22 08:47:34;;;;;;;0.70;0.60;;;6.60;99.90;;;8.02;100.00;-20900.47;5032911;28;20507;-69
2021/03/22 08:50:07;;;;;;;0.70;0.60;;;6.60;99.90;;;8.47;100.00;-20912.69;5035332;28;20449;-69
2021/03/22 08:52:40;;;;;;;0.70;0.70;;;6.60;99.90;;;8.53;100.00;-20914.34;5037240;28;20416;-69
2021/03/22 08:55:12;;;;;;;0.70;0.60;;;6.90;99.90;;;8.84;100.00;-20922.69;5037178;28;20482;-69
2021/03/22 08:57:53;;;;;;;0.70;0.50;;;6.70;99.90;;;8.65;100.00;-20917.53;5037190;28;20414;-69
2021/03/22 09:00:37;;;;;;;0.70;0.50;;;6.90;99.90;;;9.11;100.00;-20930.16;5020660;28;20775;-69
2021/03/22 09:03:28;;;;;;;0.80;0.70;;;7.00;99.90;;;9.17;100.00;-20931.81;5017528;28;20862;-68
2021/03/22 09:06:17;;;;;;;0.77;0.70;;;7.00;99.90;;;9.41;100.00;-20938.19;5015757;28;20449;-69
2021/03/22 09:09:25;;;;;;;0.70;0.60;;;7.10;99.90;;;9.39;100.00;-20937.66;5048812;28;20503;-69
2021/03/22 09:11:52;;;;;;;0.70;0.60;;;7.40;99.90;;;9.86;100.00;-20950.38;5016239;28;20451;-69
2021/03/22 09:14:40;;;;;;;1.63;1.53;;;7.50;99.90;;;9.79;100.00;-20948.44;5035634;28;20427;-69
2021/03/22 09:17:33;;;;;;;0.70;0.60;;;7.50;99.90;;;9.99;100.00;-20953.97;5035304;28;20868;-69
2021/03/22 09:20:20;;;;;;;0.70;0.60;;;7.50;99.90;;;10.31;100.00;-20962.72;5035285;28;20462;-69
2021/03/22 09:23:00;;;;;;;0.77;0.70;;;7.90;99.90;;;11.75;100.00;-21001.69;5036901;28;20446;-69
2021/03/22 09:26:03;;;;;;;2.20;2.10;;;8.90;99.90;;;12.58;100.00;-21024.19;5034885;28;20767;-70
2021/03/22 09:28:42;;;;;;;0.70;0.60;;;9.80;99.90;;;12.46;100.00;-21020.75;5036764;28;20463;-69
2021/03/22 09:31:46;;;;;;;0.70;0.60;;;9.10;99.90;;;11.86;100.00;-21004.59;5034187;28;20796;-68
2021/03/22 09:34:42;;;;;;;2.10;2.00;;;9.00;99.90;;;11.52;100.00;-20995.47;5014464;28;20560;-69
2021/03/22 09:37:46;;;;;;;1.07;0.80;;;8.90;99.90;;;11.90;100.00;-21005.69;5037025;28;20457;-69
2021/03/22 09:41:04;;;;;;;0.70;0.60;;;9.20;99.90;;;11.30;100.00;-20989.41;5036307;28;20780;-69
2021/03/22 09:43:41;;;;;;;0.70;0.60;;;8.80;99.90;;;11.16;100.00;-20985.53;5017295;28;20476;-71
2021/03/22 09:46:39;;;;;;;1.00;1.00;;;9.00;99.90;;;10.62;100.00;-20971.00;5032733;28;20448;-69
2021/03/22 09:49:24;;;;;;;0.80;0.80;;;8.80;99.90;;;10.07;100.00;-20956.19;5034939;28;20470;-70
2021/03/22 09:52:22;;;;;;;0.70;0.60;;;8.60;99.90;;;10.03;100.00;-20955.09;5034626;28;20417;-69
2021/03/22 09:54:50;;;;;;;1.20;1.10;;;8.40;99.90;;;9.88;100.00;-20950.94;5036277;28;20496;-69
2021/03/22 09:57:51;;;;;;;0.70;0.60;;;8.60;99.90;;;10.40;100.00;-20965.06;5035743;28;20462;-69
2021/03/22 10:00:57;;;;;;;1.53;1.43;;;8.60;99.90;;;11.08;100.00;-20983.44;5027940;28;20439;-69
2021/03/22 10:04:06;;;;;;;0.77;0.70;;;8.70;99.90;;;10.90;100.00;-20978.63;5016006;28;20449;-69
2021/03/22 10:07:10;;;;;;;1.30;1.20;;;8.60;99.90;;;9.80;100.00;-20948.72;5003983;28;20441;-69
2021/03/22 10:09:44;;;;;;;0.70;0.70;;;8.20;99.90;;;9.82;100.00;-20949.28;5015838;28;20469;-69
2021/03/22 10:12:29;;;;;;;0.70;0.60;;;8.00;99.90;;;9.46;100.00;-20939.56;5021579;28;20850;-69
2021/03/22 10:15:22;;;;;;;0.70;0.60;;;7.70;99.90;;;9.71;100.00;-20946.22;5035989;28;20444;-69
2021/03/22 10:18:01;;;;;;;0.70;0.60;;;7.70;99.90;;;9.31;100.00;-20935.56;5035734;28;20485;-69
2021/03/22 10:20:40;;;;;;;0.70;0.60;;;7.40;99.90;;;9.14;100.00;-20931.00;5035872;28;20447;-70
2021/03/22 10:23:22;;;;;;;0.87;0.80;;;7.40;99.90;;;9.11;100.00;-20930.03;5035536;28;20419;-69
2021/03/22 10:26:03;;;;;;;0.70;0.60;;;7.40;99.90;;;8.91;100.00;-20924.63;5034078;28;20448;-69
2021/03/22 10:28:32;;;;;;;0.70;0.50;;;7.40;99.90;;;9.07;100.00;-20929.06;5034667;28;20544;-70
2021/03/22 10:31:09;;;;;;;0.70;0.60;;;7.30;99.90;;;9.01;100.00;-20927.38;5029952;28;20442;-69
2021/03/22 10:33:44;;;;;;;0.70;0.60;;;7.40;99.90;;;9.11;100.00;-20930.16;5033950;28;20982;-69
2021/03/22 10:36:25;;;;;;;0.70;0.60;;;7.40;99.90;;;9.22;100.00;-20932.94;5035195;28;20430;-69
2021/03/22 10:38:54;;;;;;;0.70;0.50;;;7.40;99.90;;;9.59;100.00;-20943.03;5050502;28;20439;-69
2021/03/22 10:41:32;;;;;;;0.70;0.60;;;7.40;99.90;;;9.75;100.00;-20947.47;5034776;28;20527;-69
2021/03/22 10:44:04;;;;;;;0.70;0.60;;;7.50;99.90;;;9.51;100.00;-20940.97;5015346;28;20416;-69
2021/03/22 10:46:33;;;;;;;0.70;0.50;;;7.50;99.90;;;9.45;100.00;-20939.31;5014987;28;20417;-69
2021/03/22 10:49:06;;;;;;;0.70;0.60;;;7.40;99.90;;;9.41;100.00;-20938.19;5020994;28;20818;-69
2021/03/22 10:51:41;;;;;;;0.70;0.60;;;7.40;99.90;;;9.33;100.00;-20935.97;5025060;28;20437;-69
2021/03/22 10:54:12;;;;;;;0.70;0.60;;;7.50;99.90;;;9.64;100.00;-20944.44;5034785;28;20416;-69
2021/03/22 10:56:49;;;;;;;0.70;0.50;;;7.70;99.90;;;9.62;100.00;-20943.88;5034927;28;20451;-70
2021/03/22 10:59:21;;;;;;;0.70;0.60;;;7.90;99.90;;;10.18;100.00;-20958.97;5034760;28;20412;-69
2021/03/22 11:01:51;;;;;;;0.70;0.60;;;8.00;99.90;;;10.42;100.00;-20965.63;5066918;28;20436;-70